sensor_id;sensor_type;location;lat;lon;timestamp;P1;durP1;ratioP1;P2;durP2;ratioP2
58152;SDS011;43967;51.634;5.566;2022-08-07T00:02:58;7.80;;;2.83;;
58152;SDS011;43967;51.634;5.566;2022-08-07T00:07:59;8.30;;;2.70;;
58152;SDS011;43967;51.634;5.566;2022-08-07T00:13:01;7.63;;;2.90;;
58152;SDS011;43967;51.634;5.566;2022-08-07T00:18:04;8.18;;;2.70;;
58152;SDS011;43967;51.634;5.566;2022-08-07T00:23:05;7.77;;;2.57;;
58152;SDS011;43967;51.634;5.566;2022-08-07T00:28:06;8.50;;;2.70;;
58152;SDS011;43967;51.634;5.566;2022-08-07T00:33:08;9.05;;;3.40;;
58152;SDS011;43967;51.634;5.566;2022-08-07T00:38:09;7.30;;;2.90;;
58152;SDS011;43967;51.634;5.566;2022-08-07T00:43:11;7.43;;;3.00;;
58152;SDS011;43967;51.634;5.566;2022-08-07T00:48:13;7.43;;;2.75;;
58152;SDS011;43967;51.634;5.566;2022-08-07T00:53:15;9.10;;;2.88;;
58152;SDS011;43967;51.634;5.566;2022-08-07T00:58:17;7.90;;;2.70;;
58152;SDS011;43967;51.634;5.566;2022-08-07T01:03:18;6.82;;;2.50;;
58152;SDS011;43967;51.634;5.566;2022-08-07T01:08:20;6.50;;;2.40;;
58152;SDS011;43967;51.634;5.566;2022-08-07T01:13:21;7.73;;;2.80;;
58152;SDS011;43967;51.634;5.566;2022-08-07T01:18:23;6.40;;;2.30;;
58152;SDS011;43967;51.634;5.566;2022-08-07T01:23:24;8.13;;;2.30;;
58152;SDS011;43967;51.634;5.566;2022-08-07T01:28:28;7.33;;;2.50;;
58152;SDS011;43967;51.634;5.566;2022-08-07T01:33:30;7.70;;;2.30;;
58152;SDS011;43967;51.634;5.566;2022-08-07T01:38:34;6.50;;;2.60;;
58152;SDS011;43967;51.634;5.566;2022-08-07T01:43:43;6.60;;;2.38;;
58152;SDS011;43967;51.634;5.566;2022-08-07T01:48:46;6.50;;;2.30;;
58152;SDS011;43967;51.634;5.566;2022-08-07T01:54:00;6.25;;;2.00;;
58152;SDS011;43967;51.634;5.566;2022-08-07T01:59:05;7.00;;;2.17;;
58152;SDS011;43967;51.634;5.566;2022-08-07T02:04:10;7.10;;;2.30;;
58152;SDS011;43967;51.634;5.566;2022-08-07T02:09:20;6.07;;;2.10;;
58152;SDS011;43967;51.634;5.566;2022-08-07T02:14:23;8.18;;;2.50;;
58152;SDS011;43967;51.634;5.566;2022-08-07T02:19:26;8.57;;;2.30;;
58152;SDS011;43967;51.634;5.566;2022-08-07T02:24:29;5.90;;;2.20;;
58152;SDS011;43967;51.634;5.566;2022-08-07T02:29:31;6.68;;;2.40;;
58152;SDS011;43967;51.634;5.566;2022-08-07T02:34:32;7.05;;;2.50;;
58152;SDS011;43967;51.634;5.566;2022-08-07T02:39:41;6.37;;;2.03;;
58152;SDS011;43967;51.634;5.566;2022-08-07T02:44:48;6.88;;;2.30;;
58152;SDS011;43967;51.634;5.566;2022-08-07T02:49:53;6.20;;;2.08;;
58152;SDS011;43967;51.634;5.566;2022-08-07T02:54:57;6.40;;;2.30;;
58152;SDS011;43967;51.634;5.566;2022-08-07T03:00:03;6.10;;;1.92;;
58152;SDS011;43967;51.634;5.566;2022-08-07T03:05:09;7.32;;;2.10;;
58152;SDS011;43967;51.634;5.566;2022-08-07T03:10:11;9.13;;;3.47;;
58152;SDS011;43967;51.634;5.566;2022-08-07T03:15:13;10.17;;;3.70;;
58152;SDS011;43967;51.634;5.566;2022-08-07T03:20:15;8.18;;;2.97;;
58152;SDS011;43967;51.634;5.566;2022-08-07T03:25:16;9.48;;;2.47;;
58152;SDS011;43967;51.634;5.566;2022-08-07T03:30:19;8.20;;;2.40;;
58152;SDS011;43967;51.634;5.566;2022-08-07T03:35:24;6.25;;;2.00;;
58152;SDS011;43967;51.634;5.566;2022-08-07T03:40:27;8.90;;;2.30;;
58152;SDS011;43967;51.634;5.566;2022-08-07T03:45:31;7.80;;;2.30;;
58152;SDS011;43967;51.634;5.566;2022-08-07T03:50:39;8.27;;;2.00;;
58152;SDS011;43967;51.634;5.566;2022-08-07T03:55:41;6.47;;;2.10;;
58152;SDS011;43967;51.634;5.566;2022-08-07T04:00:42;7.83;;;1.97;;
58152;SDS011;43967;51.634;5.566;2022-08-07T04:05:46;6.23;;;1.87;;
58152;SDS011;43967;51.634;5.566;2022-08-07T04:10:52;5.78;;;1.85;;
58152;SDS011;43967;51.634;5.566;2022-08-07T04:15:54;5.75;;;1.85;;
58152;SDS011;43967;51.634;5.566;2022-08-07T04:20:58;6.30;;;2.13;;
58152;SDS011;43967;51.634;5.566;2022-08-07T04:26:00;5.95;;;2.33;;
58152;SDS011;43967;51.634;5.566;2022-08-07T04:31:02;6.72;;;2.13;;
58152;SDS011;43967;51.634;5.566;2022-08-07T04:36:07;7.37;;;2.10;;
58152;SDS011;43967;51.634;5.566;2022-08-07T04:41:09;8.45;;;1.80;;
58152;SDS011;43967;51.634;5.566;2022-08-07T04:46:32;5.50;;;1.70;;
58152;SDS011;43967;51.634;5.566;2022-08-07T05:07:59;6.22;;;2.55;;
58152;SDS011;43967;51.634;5.566;2022-08-07T05:13:24;5.90;;;1.90;;
58152;SDS011;43967;51.634;5.566;2022-08-07T05:18:43;5.57;;;1.90;;
58152;SDS011;43967;51.634;5.566;2022-08-07T05:23:50;6.05;;;1.80;;
58152;SDS011;43967;51.634;5.566;2022-08-07T05:28:58;6.40;;;2.00;;
58152;SDS011;43967;51.634;5.566;2022-08-07T05:34:05;5.90;;;1.98;;
58152;SDS011;43967;51.634;5.566;2022-08-07T05:39:10;6.90;;;2.40;;
58152;SDS011;43967;51.634;5.566;2022-08-07T05:44:13;7.17;;;2.07;;
58152;SDS011;43967;51.634;5.566;2022-08-07T05:49:19;6.47;;;2.10;;
58152;SDS011;43967;51.634;5.566;2022-08-07T05:54:22;6.70;;;2.00;;
58152;SDS011;43967;51.634;5.566;2022-08-07T05:59:23;6.03;;;2.30;;
58152;SDS011;43967;51.634;5.566;2022-08-07T06:04:32;6.30;;;2.23;;
58152;SDS011;43967;51.634;5.566;2022-08-07T06:09:36;5.60;;;2.15;;
58152;SDS011;43967;51.634;5.566;2022-08-07T06:14:39;7.35;;;2.40;;
58152;SDS011;43967;51.634;5.566;2022-08-07T06:19:41;6.27;;;2.43;;
58152;SDS011;43967;51.634;5.566;2022-08-07T06:24:44;6.00;;;2.03;;
58152;SDS011;43967;51.634;5.566;2022-08-07T06:29:46;5.68;;;2.08;;
58152;SDS011;43967;51.634;5.566;2022-08-07T06:34:47;7.00;;;2.53;;
58152;SDS011;43967;51.634;5.566;2022-08-07T06:39:48;7.77;;;2.60;;
58152;SDS011;43967;51.634;5.566;2022-08-07T06:44:50;6.90;;;2.45;;
58152;SDS011;43967;51.634;5.566;2022-08-07T06:49:55;6.03;;;2.60;;
58152;SDS011;43967;51.634;5.566;2022-08-07T06:54:56;5.63;;;1.97;;
58152;SDS011;43967;51.634;5.566;2022-08-07T06:59:59;6.85;;;2.00;;
58152;SDS011;43967;51.634;5.566;2022-08-07T07:05:02;6.10;;;2.22;;
58152;SDS011;43967;51.634;5.566;2022-08-07T07:10:05;6.67;;;2.20;;
58152;SDS011;43967;51.634;5.566;2022-08-07T07:15:08;6.38;;;1.92;;
58152;SDS011;43967;51.634;5.566;2022-08-07T07:20:19;5.68;;;2.15;;
58152;SDS011;43967;51.634;5.566;2022-08-07T07:25:25;5.87;;;2.30;;
58152;SDS011;43967;51.634;5.566;2022-08-07T07:30:28;6.17;;;2.10;;
58152;SDS011;43967;51.634;5.566;2022-08-07T07:35:33;5.93;;;2.25;;
58152;SDS011;43967;51.634;5.566;2022-08-07T07:40:36;5.68;;;1.90;;
58152;SDS011;43967;51.634;5.566;2022-08-07T07:45:41;5.60;;;2.13;;
58152;SDS011;43967;51.634;5.566;2022-08-07T07:50:47;6.10;;;2.22;;
58152;SDS011;43967;51.634;5.566;2022-08-07T07:55:51;6.38;;;2.42;;
58152;SDS011;43967;51.634;5.566;2022-08-07T08:00:55;5.53;;;2.03;;
58152;SDS011;43967;51.634;5.566;2022-08-07T08:05:58;5.70;;;1.98;;
58152;SDS011;43967;51.634;5.566;2022-08-07T08:10:59;6.38;;;2.13;;
58152;SDS011;43967;51.634;5.566;2022-08-07T08:16:02;5.80;;;2.17;;
58152;SDS011;43967;51.634;5.566;2022-08-07T08:21:05;5.93;;;2.20;;
58152;SDS011;43967;51.634;5.566;2022-08-07T08:26:06;5.68;;;2.13;;
58152;SDS011;43967;51.634;5.566;2022-08-07T08:31:10;5.90;;;2.17;;
58152;SDS011;43967;51.634;5.566;2022-08-07T08:36:15;5.53;;;2.07;;
58152;SDS011;43967;51.634;5.566;2022-08-07T08:41:24;5.70;;;2.40;;
58152;SDS011;43967;51.634;5.566;2022-08-07T08:46:32;5.75;;;2.13;;
58152;SDS011;43967;51.634;5.566;2022-08-07T08:52:05;5.70;;;1.90;;
58152;SDS011;43967;51.634;5.566;2022-08-07T08:57:13;5.70;;;2.03;;
58152;SDS011;43967;51.634;5.566;2022-08-07T09:02:39;5.82;;;2.00;;
58152;SDS011;43967;51.634;5.566;2022-08-07T09:07:59;5.80;;;2.30;;
58152;SDS011;43967;51.634;5.566;2022-08-07T09:13:12;5.70;;;2.13;;
58152;SDS011;43967;51.634;5.566;2022-08-07T09:29:20;5.33;;;1.87;;
58152;SDS011;43967;51.634;5.566;2022-08-07T09:39:49;6.55;;;2.20;;
58152;SDS011;43967;51.634;5.566;2022-08-07T09:50:22;6.40;;;2.10;;
58152;SDS011;43967;51.634;5.566;2022-08-07T09:55:28;5.38;;;1.70;;
58152;SDS011;43967;51.634;5.566;2022-08-07T10:00:53;5.83;;;2.33;;
58152;SDS011;43967;51.634;5.566;2022-08-07T10:11:57;5.63;;;1.95;;
58152;SDS011;43967;51.634;5.566;2022-08-07T10:22:27;5.70;;;2.10;;
58152;SDS011;43967;51.634;5.566;2022-08-07T10:33:06;5.60;;;1.98;;
58152;SDS011;43967;51.634;5.566;2022-08-07T10:43:30;5.22;;;1.50;;
58152;SDS011;43967;51.634;5.566;2022-08-07T10:48:42;5.47;;;2.00;;
58152;SDS011;43967;51.634;5.566;2022-08-07T10:54:12;5.73;;;1.93;;
58152;SDS011;43967;51.634;5.566;2022-08-07T10:59:40;5.73;;;2.00;;
58152;SDS011;43967;51.634;5.566;2022-08-07T11:05:08;6.00;;;1.85;;
58152;SDS011;43967;51.634;5.566;2022-08-07T11:10:13;5.53;;;2.00;;
58152;SDS011;43967;51.634;5.566;2022-08-07T11:15:24;7.13;;;1.77;;
58152;SDS011;43967;51.634;5.566;2022-08-07T11:20:34;7.88;;;1.67;;
58152;SDS011;43967;51.634;5.566;2022-08-07T11:26:07;5.32;;;1.67;;
58152;SDS011;43967;51.634;5.566;2022-08-07T11:31:19;5.30;;;1.90;;
58152;SDS011;43967;51.634;5.566;2022-08-07T11:42:17;6.10;;;1.95;;
58152;SDS011;43967;51.634;5.566;2022-08-07T11:47:35;6.67;;;1.80;;
58152;SDS011;43967;51.634;5.566;2022-08-07T11:52:55;6.30;;;1.80;;
58152;SDS011;43967;51.634;5.566;2022-08-07T11:58:13;5.85;;;1.70;;
58152;SDS011;43967;51.634;5.566;2022-08-07T12:08:44;6.03;;;2.00;;
58152;SDS011;43967;51.634;5.566;2022-08-07T12:14:05;5.15;;;1.75;;
58152;SDS011;43967;51.634;5.566;2022-08-07T12:19:18;5.18;;;1.73;;
58152;SDS011;43967;51.634;5.566;2022-08-07T12:24:26;5.30;;;1.70;;
58152;SDS011;43967;51.634;5.566;2022-08-07T12:29:37;5.30;;;1.70;;
58152;SDS011;43967;51.634;5.566;2022-08-07T12:34:45;5.85;;;2.03;;
58152;SDS011;43967;51.634;5.566;2022-08-07T12:39:48;5.87;;;1.97;;
58152;SDS011;43967;51.634;5.566;2022-08-07T12:44:51;6.10;;;1.97;;
58152;SDS011;43967;51.634;5.566;2022-08-07T12:50:07;5.63;;;1.73;;
58152;SDS011;43967;51.634;5.566;2022-08-07T13:06:24;6.30;;;1.70;;
58152;SDS011;43967;51.634;5.566;2022-08-07T13:22:44;5.47;;;2.03;;
58152;SDS011;43967;51.634;5.566;2022-08-07T13:27:57;6.50;;;2.38;;
58152;SDS011;43967;51.634;5.566;2022-08-07T13:43:14;9.75;;;1.80;;
58152;SDS011;43967;51.634;5.566;2022-08-07T13:48:15;11.73;;;2.17;;
58152;SDS011;43967;51.634;5.566;2022-08-07T13:53:20;6.97;;;1.83;;
58152;SDS011;43967;51.634;5.566;2022-08-07T13:58:25;8.93;;;2.40;;
58152;SDS011;43967;51.634;5.566;2022-08-07T14:03:29;5.78;;;1.98;;
58152;SDS011;43967;51.634;5.566;2022-08-07T14:08:32;7.13;;;2.23;;
58152;SDS011;43967;51.634;5.566;2022-08-07T14:13:39;7.10;;;1.80;;
58152;SDS011;43967;51.634;5.566;2022-08-07T14:18:49;6.22;;;2.20;;
58152;SDS011;43967;51.634;5.566;2022-08-07T14:24:13;6.40;;;2.47;;
58152;SDS011;43967;51.634;5.566;2022-08-07T14:29:46;6.50;;;2.40;;
58152;SDS011;43967;51.634;5.566;2022-08-07T14:34:51;6.50;;;2.13;;
58152;SDS011;43967;51.634;5.566;2022-08-07T14:39:54;10.10;;;2.03;;
58152;SDS011;43967;51.634;5.566;2022-08-07T14:44:57;5.70;;;2.00;;
58152;SDS011;43967;51.634;5.566;2022-08-07T14:50:04;6.15;;;2.00;;
58152;SDS011;43967;51.634;5.566;2022-08-07T14:55:07;5.78;;;1.90;;
58152;SDS011;43967;51.634;5.566;2022-08-07T15:00:12;5.47;;;1.90;;
58152;SDS011;43967;51.634;5.566;2022-08-07T15:05:15;5.90;;;2.00;;
58152;SDS011;43967;51.634;5.566;2022-08-07T15:10:18;5.75;;;1.92;;
58152;SDS011;43967;51.634;5.566;2022-08-07T15:15:42;5.83;;;1.80;;
58152;SDS011;43967;51.634;5.566;2022-08-07T15:20:44;5.90;;;2.50;;
58152;SDS011;43967;51.634;5.566;2022-08-07T15:25:53;6.68;;;2.10;;
58152;SDS011;43967;51.634;5.566;2022-08-07T15:30:58;6.00;;;2.03;;
58152;SDS011;43967;51.634;5.566;2022-08-07T15:36:06;6.20;;;1.80;;
58152;SDS011;43967;51.634;5.566;2022-08-07T15:41:09;7.88;;;2.75;;
58152;SDS011;43967;51.634;5.566;2022-08-07T15:46:14;12.70;;;2.63;;
58152;SDS011;43967;51.634;5.566;2022-08-07T15:51:18;6.37;;;2.10;;
58152;SDS011;43967;51.634;5.566;2022-08-07T15:56:22;5.95;;;2.20;;
58152;SDS011;43967;51.634;5.566;2022-08-07T16:01:30;5.40;;;1.80;;
58152;SDS011;43967;51.634;5.566;2022-08-07T16:06:53;6.67;;;2.33;;
58152;SDS011;43967;51.634;5.566;2022-08-07T16:12:02;5.90;;;2.47;;
58152;SDS011;43967;51.634;5.566;2022-08-07T16:17:26;6.78;;;2.15;;
58152;SDS011;43967;51.634;5.566;2022-08-07T16:23:04;6.78;;;2.35;;
58152;SDS011;43967;51.634;5.566;2022-08-07T16:28:45;6.07;;;2.00;;
58152;SDS011;43967;51.634;5.566;2022-08-07T16:34:03;6.50;;;2.63;;
58152;SDS011;43967;51.634;5.566;2022-08-07T16:39:31;6.18;;;2.22;;
58152;SDS011;43967;51.634;5.566;2022-08-07T16:55:51;6.68;;;2.33;;
58152;SDS011;43967;51.634;5.566;2022-08-07T17:12:03;6.50;;;2.10;;
58152;SDS011;43967;51.634;5.566;2022-08-07T17:17:27;7.25;;;2.60;;
58152;SDS011;43967;51.634;5.566;2022-08-07T17:22:44;11.80;;;2.50;;
58152;SDS011;43967;51.634;5.566;2022-08-07T17:33:18;6.75;;;2.58;;
58152;SDS011;43967;51.634;5.566;2022-08-07T17:38:37;9.50;;;3.43;;
58152;SDS011;43967;51.634;5.566;2022-08-07T17:43:40;6.20;;;2.75;;
58152;SDS011;43967;51.634;5.566;2022-08-07T17:48:58;7.53;;;2.97;;
58152;SDS011;43967;51.634;5.566;2022-08-07T17:54:10;7.20;;;2.60;;
58152;SDS011;43967;51.634;5.566;2022-08-07T17:59:22;6.87;;;2.43;;
58152;SDS011;43967;51.634;5.566;2022-08-07T18:04:47;6.15;;;2.70;;
58152;SDS011;43967;51.634;5.566;2022-08-07T18:09:59;6.68;;;2.00;;
58152;SDS011;43967;51.634;5.566;2022-08-07T18:15:24;6.50;;;2.33;;
58152;SDS011;43967;51.634;5.566;2022-08-07T18:20:32;6.65;;;2.47;;
58152;SDS011;43967;51.634;5.566;2022-08-07T18:25:37;6.60;;;1.92;;
58152;SDS011;43967;51.634;5.566;2022-08-07T18:31:07;7.57;;;2.47;;
58152;SDS011;43967;51.634;5.566;2022-08-07T18:36:30;6.25;;;2.30;;
58152;SDS011;43967;51.634;5.566;2022-08-07T18:42:13;8.82;;;2.67;;
58152;SDS011;43967;51.634;5.566;2022-08-07T18:47:30;6.60;;;2.80;;
58152;SDS011;43967;51.634;5.566;2022-08-07T18:52:44;6.93;;;2.00;;
58152;SDS011;43967;51.634;5.566;2022-08-07T19:14:16;5.80;;;2.10;;
58152;SDS011;43967;51.634;5.566;2022-08-07T19:25:03;5.43;;;2.17;;
58152;SDS011;43967;51.634;5.566;2022-08-07T19:30:12;6.88;;;2.50;;
58152;SDS011;43967;51.634;5.566;2022-08-07T19:35:18;7.50;;;2.47;;
58152;SDS011;43967;51.634;5.566;2022-08-07T19:40:22;7.83;;;2.43;;
58152;SDS011;43967;51.634;5.566;2022-08-07T19:45:26;6.17;;;2.50;;
58152;SDS011;43967;51.634;5.566;2022-08-07T19:50:28;7.45;;;2.55;;
58152;SDS011;43967;51.634;5.566;2022-08-07T19:55:30;7.78;;;2.83;;
58152;SDS011;43967;51.634;5.566;2022-08-07T20:00:31;7.40;;;2.57;;
58152;SDS011;43967;51.634;5.566;2022-08-07T20:05:34;9.20;;;3.25;;
58152;SDS011;43967;51.634;5.566;2022-08-07T20:10:39;9.18;;;3.20;;
58152;SDS011;43967;51.634;5.566;2022-08-07T20:15:43;11.97;;;3.53;;
58152;SDS011;43967;51.634;5.566;2022-08-07T20:20:45;8.88;;;2.97;;
58152;SDS011;43967;51.634;5.566;2022-08-07T20:25:47;7.88;;;3.20;;
58152;SDS011;43967;51.634;5.566;2022-08-07T20:30:51;7.83;;;2.67;;
58152;SDS011;43967;51.634;5.566;2022-08-07T20:35:53;8.13;;;3.10;;
58152;SDS011;43967;51.634;5.566;2022-08-07T20:40:56;10.68;;;3.05;;
58152;SDS011;43967;51.634;5.566;2022-08-07T20:45:59;11.98;;;3.05;;
58152;SDS011;43967;51.634;5.566;2022-08-07T20:51:03;16.07;;;3.00;;
58152;SDS011;43967;51.634;5.566;2022-08-07T20:56:06;13.32;;;3.30;;
58152;SDS011;43967;51.634;5.566;2022-08-07T21:01:10;9.02;;;3.00;;
58152;SDS011;43967;51.634;5.566;2022-08-07T21:06:20;11.37;;;2.87;;
58152;SDS011;43967;51.634;5.566;2022-08-07T21:11:23;13.60;;;3.10;;
58152;SDS011;43967;51.634;5.566;2022-08-07T21:16:33;14.35;;;3.70;;
58152;SDS011;43967;51.634;5.566;2022-08-07T21:21:36;13.43;;;3.50;;
58152;SDS011;43967;51.634;5.566;2022-08-07T21:32:20;12.68;;;2.97;;
58152;SDS011;43967;51.634;5.566;2022-08-07T21:47:49;9.30;;;2.72;;
58152;SDS011;43967;51.634;5.566;2022-08-07T21:53:16;10.30;;;3.17;;
58152;SDS011;43967;51.634;5.566;2022-08-07T22:03:42;9.60;;;2.80;;
58152;SDS011;43967;51.634;5.566;2022-08-07T22:08:55;11.88;;;3.17;;
58152;SDS011;43967;51.634;5.566;2022-08-07T22:13:59;9.27;;;3.10;;
58152;SDS011;43967;51.634;5.566;2022-08-07T22:19:04;7.83;;;3.20;;
58152;SDS011;43967;51.634;5.566;2022-08-07T22:24:27;8.95;;;3.20;;
58152;SDS011;43967;51.634;5.566;2022-08-07T22:29:37;9.00;;;3.10;;
58152;SDS011;43967;51.634;5.566;2022-08-07T22:34:52;8.53;;;2.67;;
58152;SDS011;43967;51.634;5.566;2022-08-07T22:40:04;8.93;;;2.90;;
58152;SDS011;43967;51.634;5.566;2022-08-07T22:45:19;7.90;;;2.40;;
58152;SDS011;43967;51.634;5.566;2022-08-07T22:55:58;10.68;;;2.97;;
58152;SDS011;43967;51.634;5.566;2022-08-07T23:11:48;7.37;;;2.63;;
58152;SDS011;43967;51.634;5.566;2022-08-07T23:22:28;6.10;;;2.50;;
58152;SDS011;43967;51.634;5.566;2022-08-07T23:38:55;7.78;;;2.63;;
58152;SDS011;43967;51.634;5.566;2022-08-07T23:44:26;6.17;;;2.53;;
58152;SDS011;43967;51.634;5.566;2022-08-07T23:49:56;6.85;;;2.45;;
